Baltimore, Maryland
Traffic Map
Current Weather Conditions
Baltimore, Maryland
Few Clouds
Few Clouds
25°
Feels Like: 25°
Wind Chill: 25° Ceiling: Unl
Heat Index: 25° Visibility: 10mi
Dew Point: 22° Wind: 0mph
Humidity: 88% Direction: ° ()
Pressure: 30.18in Gusts: 0mph
Raw Report DataKBWI 191154Z 00000KT 10SM FEW250 M04/M06 A3018 RMK AO2 SLP222 T10391056 11017 21050 55002
Traffic Incident Summary
Active as of:
Severity:
Category:
InformationThere was an issue retrieving the traffic information for this location. Please try a different location or try again shortly.
Advertisements